sensor_id;sensor_type;location;lat;lon;timestamp;pressure;altitude;pressure_sealevel;temperature;humidity
6387;BME280;3226;42.162;24.756;2023-01-15T00:00:01;100287.97;;;5.25;100.00
6387;BME280;3226;42.162;24.756;2023-01-15T00:02:40;100290.41;;;5.28;100.00
6387;BME280;3226;42.162;24.756;2023-01-15T00:05:08;100301.84;;;5.41;100.00
6387;BME280;3226;42.162;24.756;2023-01-15T00:07:36;100298.41;;;5.23;100.00
6387;BME280;3226;42.162;24.756;2023-01-15T00:10:05;100295.22;;;5.35;100.00
6387;BME280;3226;42.162;24.756;2023-01-15T00:12:33;100290.94;;;5.17;100.00
6387;BME280;3226;42.162;24.756;2023-01-15T00:15:01;100294.84;;;5.26;100.00
6387;BME280;3226;42.162;24.756;2023-01-15T00:17:29;100306.91;;;5.27;100.00
6387;BME280;3226;42.162;24.756;2023-01-15T00:19:58;100299.28;;;5.24;100.00
6387;BME280;3226;42.162;24.756;2023-01-15T00:22:27;100301.31;;;5.17;100.00
6387;BME280;3226;42.162;24.756;2023-01-15T00:24:55;100298.06;;;5.13;100.00
6387;BME280;3226;42.162;24.756;2023-01-15T00:27:40;100299.88;;;5.11;100.00
6387;BME280;3226;42.162;24.756;2023-01-15T00:30:13;100293.25;;;5.05;100.00
6387;BME280;3226;42.162;24.756;2023-01-15T00:32:43;100291.63;;;5.03;100.00
6387;BME280;3226;42.162;24.756;2023-01-15T00:35:13;100296.50;;;4.91;100.00
6387;BME280;3226;42.162;24.756;2023-01-15T00:37:41;100299.81;;;4.95;100.00
6387;BME280;3226;42.162;24.756;2023-01-15T00:40:10;100294.22;;;4.85;100.00
6387;BME280;3226;42.162;24.756;2023-01-15T00:42:39;100301.84;;;4.88;100.00
6387;BME280;3226;42.162;24.756;2023-01-15T00:45:09;100304.13;;;4.95;100.00
6387;BME280;3226;42.162;24.756;2023-01-15T00:47:38;100300.94;;;4.89;100.00
6387;BME280;3226;42.162;24.756;2023-01-15T00:50:09;100288.00;;;4.88;100.00
6387;BME280;3226;42.162;24.756;2023-01-15T00:52:39;100291.81;;;4.81;100.00
6387;BME280;3226;42.162;24.756;2023-01-15T00:55:08;100290.97;;;4.62;100.00
6387;BME280;3226;42.162;24.756;2023-01-15T00:57:36;100305.47;;;4.67;100.00
6387;BME280;3226;42.162;24.756;2023-01-15T01:00:05;100286.50;;;4.47;100.00
6387;BME280;3226;42.162;24.756;2023-01-15T01:02:33;100302.88;;;4.67;100.00
6387;BME280;3226;42.162;24.756;2023-01-15T01:05:01;100304.06;;;4.59;100.00
6387;BME280;3226;42.162;24.756;2023-01-15T01:07:29;100300.06;;;4.71;100.00
6387;BME280;3226;42.162;24.756;2023-01-15T01:09:58;100300.88;;;4.54;100.00
6387;BME280;3226;42.162;24.756;2023-01-15T01:12:26;100301.34;;;4.43;100.00
6387;BME280;3226;42.162;24.756;2023-01-15T01:14:54;100298.41;;;4.51;100.00
6387;BME280;3226;42.162;24.756;2023-01-15T01:17:22;100302.59;;;4.54;100.00
6387;BME280;3226;42.162;24.756;2023-01-15T01:19:50;100294.44;;;4.44;100.00
6387;BME280;3226;42.162;24.756;2023-01-15T01:22:19;100298.41;;;4.51;100.00
6387;BME280;3226;42.162;24.756;2023-01-15T01:24:47;100298.97;;;4.39;100.00
6387;BME280;3226;42.162;24.756;2023-01-15T01:27:16;100302.06;;;4.47;100.00
6387;BME280;3226;42.162;24.756;2023-01-15T01:29:45;100294.69;;;4.38;100.00
6387;BME280;3226;42.162;24.756;2023-01-15T01:32:13;100299.19;;;4.53;100.00
6387;BME280;3226;42.162;24.756;2023-01-15T01:34:41;100292.47;;;4.49;100.00
6387;BME280;3226;42.162;24.756;2023-01-15T01:37:09;100279.84;;;4.41;100.00
6387;BME280;3226;42.162;24.756;2023-01-15T01:39:37;100294.53;;;4.41;100.00
6387;BME280;3226;42.162;24.756;2023-01-15T01:42:10;100295.59;;;4.56;100.00
6387;BME280;3226;42.162;24.756;2023-01-15T01:45:03;100295.53;;;4.57;100.00
6387;BME280;3226;42.162;24.756;2023-01-15T01:47:32;100295.88;;;4.49;100.00
6387;BME280;3226;42.162;24.756;2023-01-15T01:50:04;100298.13;;;4.57;100.00
6387;BME280;3226;42.162;24.756;2023-01-15T01:52:38;100291.25;;;4.56;100.00
6387;BME280;3226;42.162;24.756;2023-01-15T01:55:08;100290.97;;;4.62;100.00
6387;BME280;3226;42.162;24.756;2023-01-15T01:57:37;100288.81;;;4.71;100.00
6387;BME280;3226;42.162;24.756;2023-01-15T02:00:10;100291.06;;;4.78;100.00
6387;BME280;3226;42.162;24.756;2023-01-15T02:02:43;100283.44;;;4.93;100.00
6387;BME280;3226;42.162;24.756;2023-01-15T02:05:16;100282.59;;;4.92;100.00
6387;BME280;3226;42.162;24.756;2023-01-15T02:07:47;100278.38;;;4.72;100.00
6387;BME280;3226;42.162;24.756;2023-01-15T02:10:15;100279.81;;;4.60;100.00
6387;BME280;3226;42.162;24.756;2023-01-15T02:12:48;100289.13;;;4.65;100.00
6387;BME280;3226;42.162;24.756;2023-01-15T02:15:26;100287.16;;;4.70;100.00
6387;BME280;3226;42.162;24.756;2023-01-15T02:18:02;100285.56;;;4.85;100.00
6387;BME280;3226;42.162;24.756;2023-01-15T02:20:36;100277.72;;;5.04;100.00
6387;BME280;3226;42.162;24.756;2023-01-15T02:23:19;100269.78;;;5.07;100.00
6387;BME280;3226;42.162;24.756;2023-01-15T02:26:18;100270.84;;;4.85;100.00
6387;BME280;3226;42.162;24.756;2023-01-15T02:28:55;100272.06;;;4.96;100.00
6387;BME280;3226;42.162;24.756;2023-01-15T02:31:27;100269.19;;;4.84;100.00
6387;BME280;3226;42.162;24.756;2023-01-15T02:33:59;100265.34;;;4.91;100.00
6387;BME280;3226;42.162;24.756;2023-01-15T02:36:31;100258.03;;;4.82;100.00
6387;BME280;3226;42.162;24.756;2023-01-15T02:39:03;100267.34;;;4.86;100.00
6387;BME280;3226;42.162;24.756;2023-01-15T02:41:37;100262.22;;;4.85;100.00
6387;BME280;3226;42.162;24.756;2023-01-15T02:44:09;100267.09;;;4.91;100.00
6387;BME280;3226;42.162;24.756;2023-01-15T02:46:40;100240.44;;;4.70;100.00
6387;BME280;3226;42.162;24.756;2023-01-15T02:49:13;100253.19;;;4.92;100.00
6387;BME280;3226;42.162;24.756;2023-01-15T02:51:51;100255.28;;;4.85;100.00
6387;BME280;3226;42.162;24.756;2023-01-15T02:54:23;100263.84;;;4.87;100.00
6387;BME280;3226;42.162;24.756;2023-01-15T02:56:54;100262.31;;;4.83;100.00
6387;BME280;3226;42.162;24.756;2023-01-15T02:59:29;100270.84;;;4.85;100.00
6387;BME280;3226;42.162;24.756;2023-01-15T03:02:03;100263.06;;;4.85;100.00
6387;BME280;3226;42.162;24.756;2023-01-15T03:04:38;100261.44;;;4.83;100.00
6387;BME280;3226;42.162;24.756;2023-01-15T03:07:12;100274.78;;;4.75;100.00
6387;BME280;3226;42.162;24.756;2023-01-15T03:09:41;100269.31;;;4.81;100.00
6387;BME280;3226;42.162;24.756;2023-01-15T03:12:14;100275.34;;;4.82;100.00
6387;BME280;3226;42.162;24.756;2023-01-15T03:14:51;100265.25;;;4.75;100.00
6387;BME280;3226;42.162;24.756;2023-01-15T03:17:25;100269.88;;;4.51;100.00
6387;BME280;3226;42.162;24.756;2023-01-15T03:19:58;100253.31;;;4.17;100.00
6387;BME280;3226;42.162;24.756;2023-01-15T03:22:31;100272.91;;;4.23;100.00
6387;BME280;3226;42.162;24.756;2023-01-15T03:25:03;100274.72;;;4.20;100.00
6387;BME280;3226;42.162;24.756;2023-01-15T03:27:34;100277.25;;;4.22;100.00
6387;BME280;3226;42.162;24.756;2023-01-15T03:30:12;100265.13;;;4.03;100.00
6387;BME280;3226;42.162;24.756;2023-01-15T03:32:41;100275.50;;;4.23;100.00
6387;BME280;3226;42.162;24.756;2023-01-15T03:35:41;100272.13;;;4.40;100.00
6387;BME280;3226;42.162;24.756;2023-01-15T03:38:11;100269.47;;;4.41;100.00
6387;BME280;3226;42.162;24.756;2023-01-15T03:40:47;100266.66;;;4.46;100.00
6387;BME280;3226;42.162;24.756;2023-01-15T03:43:18;100241.59;;;4.27;100.00
6387;BME280;3226;42.162;24.756;2023-01-15T03:46:13;100271.72;;;4.67;100.00
6387;BME280;3226;42.162;24.756;2023-01-15T03:48:50;100257.69;;;4.71;100.00
6387;BME280;3226;42.162;24.756;2023-01-15T03:51:29;100267.69;;;4.61;100.00
6387;BME280;3226;42.162;24.756;2023-01-15T03:54:06;100266.59;;;4.84;100.00
6387;BME280;3226;42.162;24.756;2023-01-15T03:56:44;100261.34;;;4.67;100.00
6387;BME280;3226;42.162;24.756;2023-01-15T03:59:22;100266.69;;;4.63;100.00
6387;BME280;3226;42.162;24.756;2023-01-15T04:01:55;100274.25;;;4.68;100.00
6387;BME280;3226;42.162;24.756;2023-01-15T04:04:25;100272.69;;;4.83;100.00
6387;BME280;3226;42.162;24.756;2023-01-15T04:06:54;100268.06;;;4.71;100.00
6387;BME280;3226;42.162;24.756;2023-01-15T04:09:22;100265.09;;;4.61;100.00
6387;BME280;3226;42.162;24.756;2023-01-15T04:11:51;100268.50;;;4.98;100.00
6387;BME280;3226;42.162;24.756;2023-01-15T04:14:19;100270.97;;;4.65;100.00
6387;BME280;3226;42.162;24.756;2023-01-15T04:16:47;100274.88;;;4.91;100.00
6387;BME280;3226;42.162;24.756;2023-01-15T04:19:17;100284.09;;;4.61;100.00
6387;BME280;3226;42.162;24.756;2023-01-15T04:21:45;100273.53;;;4.47;100.00
6387;BME280;3226;42.162;24.756;2023-01-15T04:24:13;100282.28;;;4.44;100.00
6387;BME280;3226;42.162;24.756;2023-01-15T04:26:41;100284.97;;;4.43;100.00
6387;BME280;3226;42.162;24.756;2023-01-15T04:29:09;100278.59;;;4.31;100.00
6387;BME280;3226;42.162;24.756;2023-01-15T04:31:37;100284.91;;;4.25;100.00
6387;BME280;3226;42.162;24.756;2023-01-15T04:34:05;100292.81;;;4.22;100.00
6387;BME280;3226;42.162;24.756;2023-01-15T04:36:34;100297.88;;;4.25;100.00
6387;BME280;3226;42.162;24.756;2023-01-15T04:39:03;100304.09;;;4.21;100.00
6387;BME280;3226;42.162;24.756;2023-01-15T04:41:31;100297.44;;;4.34;100.00
6387;BME280;3226;42.162;24.756;2023-01-15T04:44:17;100300.78;;;4.37;100.00
6387;BME280;3226;42.162;24.756;2023-01-15T04:46:45;100301.69;;;4.36;100.00
6387;BME280;3226;42.162;24.756;2023-01-15T04:49:14;100298.41;;;4.51;100.00
6387;BME280;3226;42.162;24.756;2023-01-15T04:51:45;100304.94;;;4.60;100.00
6387;BME280;3226;42.162;24.756;2023-01-15T04:54:14;100302.31;;;4.41;100.00
6387;BME280;3226;42.162;24.756;2023-01-15T04:56:44;100298.06;;;4.40;100.00
6387;BME280;3226;42.162;24.756;2023-01-15T04:59:13;100315.28;;;4.41;100.00
6387;BME280;3226;42.162;24.756;2023-01-15T05:01:42;100297.88;;;4.25;100.00
6387;BME280;3226;42.162;24.756;2023-01-15T05:04:28;100313.56;;;4.22;100.00
6387;BME280;3226;42.162;24.756;2023-01-15T05:06:57;100306.75;;;4.19;100.00
6387;BME280;3226;42.162;24.756;2023-01-15T05:09:27;100314.75;;;4.15;100.00
6387;BME280;3226;42.162;24.756;2023-01-15T05:11:55;100306.56;;;4.24;100.00
6387;BME280;3226;42.162;24.756;2023-01-15T05:14:23;100305.78;;;4.22;100.00
6387;BME280;3226;42.162;24.756;2023-01-15T05:16:51;100308.38;;;4.41;100.00
6387;BME280;3226;42.162;24.756;2023-01-15T05:19:19;100301.50;;;4.40;100.00
6387;BME280;3226;42.162;24.756;2023-01-15T05:21:47;100307.09;;;4.50;100.00
6387;BME280;3226;42.162;24.756;2023-01-15T05:24:16;100293.44;;;4.27;100.00
6387;BME280;3226;42.162;24.756;2023-01-15T05:26:44;100298.06;;;4.20;100.00
6387;BME280;3226;42.162;24.756;2023-01-15T05:29:13;100315.19;;;4.25;100.00
6387;BME280;3226;42.162;24.756;2023-01-15T05:31:41;100306.50;;;4.26;100.00
6387;BME280;3226;42.162;24.756;2023-01-15T05:34:11;100306.06;;;4.16;100.00
6387;BME280;3226;42.162;24.756;2023-01-15T05:36:39;100304.09;;;4.02;100.00
6387;BME280;3226;42.162;24.756;2023-01-15T05:39:08;100302.13;;;3.88;100.00
6387;BME280;3226;42.162;24.756;2023-01-15T05:41:37;100320.69;;;3.98;100.00
6387;BME280;3226;42.162;24.756;2023-01-15T05:44:22;100317.88;;;4.02;100.00
6387;BME280;3226;42.162;24.756;2023-01-15T05:46:51;100314.78;;;3.94;100.00
6387;BME280;3226;42.162;24.756;2023-01-15T05:49:21;100320.69;;;3.98;100.00
6387;BME280;3226;42.162;24.756;2023-01-15T05:51:50;100323.47;;;3.93;100.00
6387;BME280;3226;42.162;24.756;2023-01-15T05:54:24;100298.31;;;3.76;100.00
6387;BME280;3226;42.162;24.756;2023-01-15T05:56:54;100320.38;;;3.85;100.00
6387;BME280;3226;42.162;24.756;2023-01-15T05:59:23;100314.34;;;3.84;100.00
6387;BME280;3226;42.162;24.756;2023-01-15T06:01:52;100328.25;;;4.02;100.00
6387;BME280;3226;42.162;24.756;2023-01-15T06:04:22;100334.72;;;4.13;100.00
6387;BME280;3226;42.162;24.756;2023-01-15T06:06:52;100334.44;;;4.19;100.00
6387;BME280;3226;42.162;24.756;2023-01-15T06:09:21;100325.94;;;3.96;100.00
6387;BME280;3226;42.162;24.756;2023-01-15T06:11:50;100278.41;;;3.57;100.00
6387;BME280;3226;42.162;24.756;2023-01-15T06:14:21;100326.44;;;4.04;100.00
6387;BME280;3226;42.162;24.756;2023-01-15T06:16:49;100320.47;;;4.02;100.00
6387;BME280;3226;42.162;24.756;2023-01-15T06:19:18;100333.72;;;4.15;100.00
6387;BME280;3226;42.162;24.756;2023-01-15T06:21:46;100320.28;;;4.07;100.00
6387;BME280;3226;42.162;24.756;2023-01-15T06:24:14;100319.41;;;4.07;100.00
6387;BME280;3226;42.162;24.756;2023-01-15T06:26:43;100322.66;;;3.93;100.00
6387;BME280;3226;42.162;24.756;2023-01-15T06:29:11;100317.88;;;4.02;100.00
6387;BME280;3226;42.162;24.756;2023-01-15T06:31:44;100319.56;;;4.03;100.00
6387;BME280;3226;42.162;24.756;2023-01-15T06:34:13;100324.13;;;4.17;100.00
6387;BME280;3226;42.162;24.756;2023-01-15T06:36:41;100317.34;;;4.15;100.00
6387;BME280;3226;42.162;24.756;2023-01-15T06:39:09;100328.00;;;4.09;100.00
6387;BME280;3226;42.162;24.756;2023-01-15T06:41:37;100305.44;;;4.11;100.00
6387;BME280;3226;42.162;24.756;2023-01-15T06:44:22;100339.53;;;4.20;100.00
6387;BME280;3226;42.162;24.756;2023-01-15T06:47:13;100316.50;;;4.33;100.00
6387;BME280;3226;42.162;24.756;2023-01-15T06:49:50;100335.56;;;4.32;100.00
6387;BME280;3226;42.162;24.756;2023-01-15T06:52:18;100340.13;;;4.27;100.00
6387;BME280;3226;42.162;24.756;2023-01-15T06:54:46;100343.56;;;4.28;100.00
6387;BME280;3226;42.162;24.756;2023-01-15T06:57:15;100344.09;;;4.34;100.00
6387;BME280;3226;42.162;24.756;2023-01-15T06:59:44;100350.91;;;4.18;100.00
6387;BME280;3226;42.162;24.756;2023-01-15T07:02:13;100343.59;;;4.07;100.00
6387;BME280;3226;42.162;24.756;2023-01-15T07:04:43;100349.56;;;4.09;100.00
6387;BME280;3226;42.162;24.756;2023-01-15T07:07:11;100342.69;;;4.08;100.00
6387;BME280;3226;42.162;24.756;2023-01-15T07:09:39;100344.31;;;4.11;100.00
6387;BME280;3226;42.162;24.756;2023-01-15T07:12:07;100343.25;;;3.96;100.00
6387;BME280;3226;42.162;24.756;2023-01-15T07:14:35;100348.47;;;3.94;100.00
6387;BME280;3226;42.162;24.756;2023-01-15T07:17:03;100347.16;;;4.04;100.00
6387;BME280;3226;42.162;24.756;2023-01-15T07:19:33;100332.78;;;3.97;100.00
6387;BME280;3226;42.162;24.756;2023-01-15T07:22:01;100341.13;;;3.85;100.00
6387;BME280;3226;42.162;24.756;2023-01-15T07:24:31;100342.16;;;3.81;100.00
6387;BME280;3226;42.162;24.756;2023-01-15T07:26:59;100353.56;;;3.76;100.00
6387;BME280;3226;42.162;24.756;2023-01-15T07:29:27;100352.91;;;3.92;100.00
6387;BME280;3226;42.162;24.756;2023-01-15T07:31:57;100349.25;;;3.96;100.00
6387;BME280;3226;42.162;24.756;2023-01-15T07:34:25;100355.66;;;4.08;100.00
6387;BME280;3226;42.162;24.756;2023-01-15T07:36:54;100347.31;;;4.20;100.00
6387;BME280;3226;42.162;24.756;2023-01-15T07:39:22;100351.69;;;4.20;100.00
6387;BME280;3226;42.162;24.756;2023-01-15T07:41:50;100344.31;;;4.11;100.00
6387;BME280;3226;42.162;24.756;2023-01-15T07:44:35;100348.38;;;4.36;100.00
6387;BME280;3226;42.162;24.756;2023-01-15T07:47:22;100348.91;;;4.25;100.00
6387;BME280;3226;42.162;24.756;2023-01-15T07:50:09;100349.44;;;4.31;100.00
6387;BME280;3226;42.162;24.756;2023-01-15T07:52:39;100348.50;;;4.13;100.00
6387;BME280;3226;42.162;24.756;2023-01-15T07:55:08;100347.06;;;4.08;100.00
6387;BME280;3226;42.162;24.756;2023-01-15T07:57:38;100341.88;;;4.27;100.00
6387;BME280;3226;42.162;24.756;2023-01-15T08:00:10;100352.19;;;4.47;100.00
6387;BME280;3226;42.162;24.756;2023-01-15T08:02:39;100348.50;;;4.71;100.00
6387;BME280;3226;42.162;24.756;2023-01-15T08:05:08;100347.25;;;4.60;100.00
6387;BME280;3226;42.162;24.756;2023-01-15T08:07:40;100360.25;;;4.60;100.00
6387;BME280;3226;42.162;24.756;2023-01-15T08:10:10;100338.09;;;4.34;100.00
6387;BME280;3226;42.162;24.756;2023-01-15T08:12:38;100354.00;;;4.65;100.00
6387;BME280;3226;42.162;24.756;2023-01-15T08:15:24;100351.03;;;4.72;100.00
6387;BME280;3226;42.162;24.756;2023-01-15T08:17:52;100352.88;;;4.70;100.00
6387;BME280;3226;42.162;24.756;2023-01-15T08:20:21;100352.03;;;4.70;100.00
6387;BME280;3226;42.162;24.756;2023-01-15T08:22:52;100354.06;;;4.82;100.00
6387;BME280;3226;42.162;24.756;2023-01-15T08:25:23;100349.56;;;4.67;100.00
6387;BME280;3226;42.162;24.756;2023-01-15T08:27:52;100330.81;;;4.42;100.00
6387;BME280;3226;42.162;24.756;2023-01-15T08:30:22;100346.97;;;4.67;100.00
6387;BME280;3226;42.162;24.756;2023-01-15T08:32:51;100350.00;;;4.57;100.00
6387;BME280;3226;42.162;24.756;2023-01-15T08:35:19;100352.78;;;4.72;100.00
6387;BME280;3226;42.162;24.756;2023-01-15T08:37:47;100344.75;;;4.78;100.00
6387;BME280;3226;42.162;24.756;2023-01-15T08:40:16;100347.38;;;4.76;100.00
6387;BME280;3226;42.162;24.756;2023-01-15T08:42:44;100343.03;;;4.77;100.00
6387;BME280;3226;42.162;24.756;2023-01-15T08:45:12;100335.88;;;4.82;100.00
6387;BME280;3226;42.162;24.756;2023-01-15T08:47:40;100339.88;;;4.89;100.00
6387;BME280;3226;42.162;24.756;2023-01-15T08:50:09;100333.13;;;4.85;100.00
6387;BME280;3226;42.162;24.756;2023-01-15T08:52:38;100332.06;;;4.89;100.00
6387;BME280;3226;42.162;24.756;2023-01-15T08:55:07;100331.75;;;4.78;100.00
6387;BME280;3226;42.162;24.756;2023-01-15T08:57:36;100331.66;;;4.80;100.00
6387;BME280;3226;42.162;24.756;2023-01-15T09:00:06;100327.94;;;4.85;100.00
6387;BME280;3226;42.162;24.756;2023-01-15T09:02:34;100331.34;;;4.68;100.00
6387;BME280;3226;42.162;24.756;2023-01-15T09:05:02;100315.78;;;4.68;100.00
6387;BME280;3226;42.162;24.756;2023-01-15T09:07:30;100330.50;;;5.04;100.00
6387;BME280;3226;42.162;24.756;2023-01-15T09:10:00;100325.09;;;4.72;100.00
6387;BME280;3226;42.162;24.756;2023-01-15T09:12:30;100324.66;;;4.82;100.00
6387;BME280;3226;42.162;24.756;2023-01-15T09:14:59;100326.94;;;4.88;100.00
6387;BME280;3226;42.162;24.756;2023-01-15T09:17:29;100319.25;;;4.86;100.00
6387;BME280;3226;42.162;24.756;2023-01-15T09:19:58;100299.69;;;4.79;100.00
6387;BME280;3226;42.162;24.756;2023-01-15T09:22:27;100319.81;;;5.11;100.00
6387;BME280;3226;42.162;24.756;2023-01-15T09:24:56;100317.72;;;4.82;100.00
6387;BME280;3226;42.162;24.756;2023-01-15T09:27:25;100309.16;;;4.80;100.00
6387;BME280;3226;42.162;24.756;2023-01-15T09:29:53;100312.69;;;4.79;100.00
6387;BME280;3226;42.162;24.756;2023-01-15T09:32:22;100305.25;;;4.71;100.00
6387;BME280;3226;42.162;24.756;2023-01-15T09:34:50;100305.81;;;4.78;100.00
6387;BME280;3226;42.162;24.756;2023-01-15T09:37:18;100295.06;;;5.03;100.00
6387;BME280;3226;42.162;24.756;2023-01-15T09:39:46;100297.56;;;5.05;100.00
6387;BME280;3226;42.162;24.756;2023-01-15T09:42:25;100289.81;;;5.23;100.00
6387;BME280;3226;42.162;24.756;2023-01-15T09:45:12;100296.59;;;5.43;100.00
6387;BME280;3226;42.162;24.756;2023-01-15T09:47:53;100282.31;;;5.52;100.00
6387;BME280;3226;42.162;24.756;2023-01-15T09:50:32;100288.19;;;5.38;100.00
6387;BME280;3226;42.162;24.756;2023-01-15T09:53:13;100284.22;;;5.30;100.00
6387;BME280;3226;42.162;24.756;2023-01-15T09:55:45;100291.25;;;5.46;100.00
6387;BME280;3226;42.162;24.756;2023-01-15T09:58:16;100278.19;;;5.30;100.00
6387;BME280;3226;42.162;24.756;2023-01-15T10:00:47;100281.69;;;5.29;100.00
6387;BME280;3226;42.162;24.756;2023-01-15T10:03:32;100268.69;;;5.46;100.00
6387;BME280;3226;42.162;24.756;2023-01-15T10:06:09;100262.28;;;5.36;100.00
6387;BME280;3226;42.162;24.756;2023-01-15T10:08:42;100262.91;;;5.06;100.00
6387;BME280;3226;42.162;24.756;2023-01-15T10:11:28;100263.31;;;4.98;100.00
6387;BME280;3226;42.162;24.756;2023-01-15T10:14:17;100258.47;;;5.08;100.00
6387;BME280;3226;42.162;24.756;2023-01-15T10:16:50;100244.75;;;4.88;100.00
6387;BME280;3226;42.162;24.756;2023-01-15T10:19:21;100248.03;;;5.10;100.00
6387;BME280;3226;42.162;24.756;2023-01-15T10:21:59;100222.31;;;4.87;100.00
6387;BME280;3226;42.162;24.756;2023-01-15T10:24:36;100236.19;;;5.21;100.00
6387;BME280;3226;42.162;24.756;2023-01-15T10:27:10;100240.34;;;5.42;100.00
6387;BME280;3226;42.162;24.756;2023-01-15T10:29:44;100231.06;;;5.38;100.00
6387;BME280;3226;42.162;24.756;2023-01-15T10:32:21;100224.22;;;5.53;100.00
6387;BME280;3226;42.162;24.756;2023-01-15T10:35:15;100224.09;;;5.72;100.00
6387;BME280;3226;42.162;24.756;2023-01-15T10:37:51;100220.88;;;5.50;100.00
6387;BME280;3226;42.162;24.756;2023-01-15T10:40:33;100199.16;;;5.52;100.00
6387;BME280;3226;42.162;24.756;2023-01-15T10:43:10;100209.94;;;5.44;100.00
6387;BME280;3226;42.162;24.756;2023-01-15T10:45:44;100207.16;;;5.31;100.00
6387;BME280;3226;42.162;24.756;2023-01-15T10:48:20;100214.88;;;5.32;100.00
6387;BME280;3226;42.162;24.756;2023-01-15T10:50:51;100210.72;;;5.28;100.00
6387;BME280;3226;42.162;24.756;2023-01-15T10:53:28;100195.53;;;5.54;100.00
6387;BME280;3226;42.162;24.756;2023-01-15T10:56:00;100192.16;;;5.36;100.00
6387;BME280;3226;42.162;24.756;2023-01-15T10:58:36;100192.00;;;5.39;100.00
6387;BME280;3226;42.162;24.756;2023-01-15T11:01:09;100186.72;;;5.41;100.00
6387;BME280;3226;42.162;24.756;2023-01-15T11:03:41;100180.47;;;5.61;100.00
6387;BME280;3226;42.162;24.756;2023-01-15T11:06:13;100175.31;;;5.43;100.00
6387;BME280;3226;42.162;24.756;2023-01-15T11:08:47;100172.88;;;5.40;100.00
6387;BME280;3226;42.162;24.756;2023-01-15T11:11:39;100166.16;;;5.54;100.00
6387;BME280;3226;42.162;24.756;2023-01-15T11:14:34;100169.91;;;5.48;100.00
6387;BME280;3226;42.162;24.756;2023-01-15T11:17:21;100159.41;;;5.33;100.00
6387;BME280;3226;42.162;24.756;2023-01-15T11:20:16;100165.56;;;5.48;100.00
6387;BME280;3226;42.162;24.756;2023-01-15T11:22:49;100161.53;;;5.59;100.00
6387;BME280;3226;42.162;24.756;2023-01-15T11:25:26;100157.44;;;5.55;100.00
6387;BME280;3226;42.162;24.756;2023-01-15T11:27:54;100151.88;;;5.45;100.00
6387;BME280;3226;42.162;24.756;2023-01-15T11:30:25;100147.06;;;5.37;100.00
6387;BME280;3226;42.162;24.756;2023-01-15T11:32:55;100151.94;;;5.43;100.00
6387;BME280;3226;42.162;24.756;2023-01-15T11:35:24;100148.56;;;5.75;99.49
6387;BME280;3226;42.162;24.756;2023-01-15T11:38:10;100145.66;;;5.47;100.00
6387;BME280;3226;42.162;24.756;2023-01-15T11:40:50;100139.25;;;5.55;100.00
6387;BME280;3226;42.162;24.756;2023-01-15T11:43:20;100144.84;;;5.47;100.00
6387;BME280;3226;42.162;24.756;2023-01-15T11:46:22;100134.13;;;5.53;100.00
6387;BME280;3226;42.162;24.756;2023-01-15T11:49:09;100115.91;;;5.37;100.00
6387;BME280;3226;42.162;24.756;2023-01-15T11:51:55;100132.84;;;5.60;100.00
6387;BME280;3226;42.162;24.756;2023-01-15T11:54:26;100136.19;;;5.46;100.00
6387;BME280;3226;42.162;24.756;2023-01-15T11:56:57;100101.34;;;5.34;100.00
6387;BME280;3226;42.162;24.756;2023-01-15T11:59:25;100124.56;;;5.54;100.00
6387;BME280;3226;42.162;24.756;2023-01-15T12:01:55;100088.94;;;5.24;100.00
6387;BME280;3226;42.162;24.756;2023-01-15T12:04:30;100116.69;;;5.71;100.00
6387;BME280;3226;42.162;24.756;2023-01-15T12:07:00;100110.56;;;5.56;100.00
6387;BME280;3226;42.162;24.756;2023-01-15T12:09:45;100113.56;;;5.64;100.00
6387;BME280;3226;42.162;24.756;2023-01-15T12:12:28;100117.09;;;5.47;100.00
6387;BME280;3226;42.162;24.756;2023-01-15T12:15:21;100111.53;;;5.21;100.00
6387;BME280;3226;42.162;24.756;2023-01-15T12:21:02;100101.59;;;5.46;100.00
6387;BME280;3226;42.162;24.756;2023-01-15T12:23:40;100074.47;;;5.02;100.00
6387;BME280;3226;42.162;24.756;2023-01-15T12:26:19;100094.78;;;5.43;100.00
6387;BME280;3226;42.162;24.756;2023-01-15T12:28:56;100090.19;;;5.32;100.00
6387;BME280;3226;42.162;24.756;2023-01-15T12:31:30;100081.78;;;5.11;100.00
6387;BME280;3226;42.162;24.756;2023-01-15T12:34:06;100087.75;;;5.29;100.00
6387;BME280;3226;42.162;24.756;2023-01-15T12:36:43;100085.75;;;5.34;100.00
6387;BME280;3226;42.162;24.756;2023-01-15T12:39:21;100080.22;;;5.57;99.72
6387;BME280;3226;42.162;24.756;2023-01-15T12:41:55;100064.97;;;5.67;99.23
6387;BME280;3226;42.162;24.756;2023-01-15T12:44:45;100072.91;;;5.79;97.88
6387;BME280;3226;42.162;24.756;2023-01-15T12:47:36;100072.63;;;5.54;98.88
6387;BME280;3226;42.162;24.756;2023-01-15T12:50:26;100051.50;;;5.44;99.70
6387;BME280;3226;42.162;24.756;2023-01-15T12:53:00;100064.06;;;5.68;98.89
6387;BME280;3226;42.162;24.756;2023-01-15T12:55:32;100071.88;;;5.52;98.82
6387;BME280;3226;42.162;24.756;2023-01-15T12:58:12;100075.03;;;5.41;100.00
6387;BME280;3226;42.162;24.756;2023-01-15T13:00:44;100068.47;;;5.82;99.17
6387;BME280;3226;42.162;24.756;2023-01-15T13:03:18;100060.59;;;5.67;97.88
6387;BME280;3226;42.162;24.756;2023-01-15T13:05:50;100056.75;;;5.74;96.85
6387;BME280;3226;42.162;24.756;2023-01-15T13:08:23;100062.59;;;5.94;96.77
6387;BME280;3226;42.162;24.756;2023-01-15T13:10:54;100059.72;;;5.99;96.39
6387;BME280;3226;42.162;24.756;2023-01-15T13:13:25;100067.53;;;5.83;96.15
6387;BME280;3226;42.162;24.756;2023-01-15T13:16:11;100061.44;;;5.84;97.14
6387;BME280;3226;42.162;24.756;2023-01-15T13:18:53;100062.75;;;5.91;96.57
6387;BME280;3226;42.162;24.756;2023-01-15T13:21:26;100061.59;;;5.81;97.19
6387;BME280;3226;42.162;24.756;2023-01-15T13:27:09;100062.13;;;5.55;100.00
6387;BME280;3226;42.162;24.756;2023-01-15T13:29:57;100057.31;;;5.63;99.49
6387;BME280;3226;42.162;24.756;2023-01-15T13:32:31;100053.38;;;5.72;99.58
6387;BME280;3226;42.162;24.756;2023-01-15T13:35:05;100047.88;;;5.46;100.00